createdAt,value
2023-02-22T00:01:42.824Z,10.93
2023-02-22T00:04:30.015Z,11.55
2023-02-22T00:07:17.370Z,11.82
2023-02-22T00:10:05.398Z,14.25
2023-02-22T00:12:55.028Z,12.07
2023-02-22T00:15:42.267Z,12.57
2023-02-22T00:18:29.979Z,11.85
2023-02-22T00:21:18.319Z,10.88
2023-02-22T00:24:22.804Z,12.18
2023-02-22T00:27:11.095Z,12.38
2023-02-22T00:29:58.872Z,11.85
2023-02-22T00:32:48.043Z,12.10
2023-02-22T00:35:35.222Z,15.10
2023-02-22T00:38:22.468Z,13.00
2023-02-22T00:41:10.398Z,11.93
2023-02-22T00:43:57.658Z,12.35
2023-02-22T00:46:44.998Z,12.32
2023-02-22T00:49:32.087Z,13.30
2023-02-22T00:52:19.430Z,13.85
2023-02-22T00:55:09.845Z,13.07
2023-02-22T00:57:57.458Z,13.55
2023-02-22T01:00:44.796Z,13.32
2023-02-22T01:03:32.272Z,13.15
2023-02-22T01:06:20.014Z,13.10
2023-02-22T01:09:07.804Z,13.13
2023-02-22T01:11:55.787Z,13.65
2023-02-22T01:14:43.729Z,13.73
2023-02-22T01:17:31.141Z,13.00
2023-02-22T01:20:19.293Z,11.43
2023-02-22T01:23:08.207Z,12.73
2023-02-22T01:25:55.609Z,11.55
2023-02-22T01:28:42.877Z,11.55
2023-02-22T01:31:30.102Z,11.43
2023-02-22T01:34:18.455Z,11.27
2023-02-22T01:37:06.649Z,11.23
2023-02-22T01:39:54.371Z,11.65
2023-02-22T01:42:41.634Z,12.48
2023-02-22T01:45:34.931Z,13.05
2023-02-22T01:48:40.049Z,12.63
2023-02-22T01:51:37.599Z,13.20
2023-02-22T01:54:38.823Z,13.38
2023-02-22T01:57:31.323Z,15.00
2023-02-22T02:00:22.152Z,23.38
2023-02-22T02:03:15.058Z,58.45
2023-02-22T02:06:06.317Z,39.83
2023-02-22T02:09:25.685Z,37.50
2023-02-22T02:12:15.241Z,14.25
2023-02-22T02:15:25.448Z,11.93
2023-02-22T02:18:13.889Z,14.05
2023-02-22T02:21:25.342Z,12.02
2023-02-22T02:27:13.689Z,10.25
2023-02-22T02:30:24.310Z,10.38
2023-02-22T02:33:26.732Z,11.60
2023-02-22T02:36:34.284Z,10.95
2023-02-22T02:39:29.767Z,11.27
2023-02-22T02:42:23.328Z,12.68
2023-02-22T02:45:18.564Z,11.48
2023-02-22T02:48:10.105Z,10.98
2023-02-22T02:51:00.596Z,10.05
2023-02-22T02:53:51.413Z,11.32
2023-02-22T02:56:38.629Z,10.70
2023-02-22T02:59:35.310Z,18.58
2023-02-22T03:02:37.771Z,16.25
2023-02-22T03:05:34.603Z,16.98
2023-02-22T03:08:39.956Z,17.38
2023-02-22T03:11:51.287Z,16.88
2023-02-22T03:14:55.906Z,16.15
2023-02-22T03:17:49.028Z,14.77
2023-02-22T03:20:48.548Z,14.00
2023-02-22T03:23:40.252Z,13.70
2023-02-22T03:26:36.517Z,11.20
2023-02-22T03:29:27.891Z,12.32
2023-02-22T03:32:22.578Z,12.43
2023-02-22T03:35:14.905Z,11.77
2023-02-22T03:38:06.171Z,42.00
2023-02-22T03:40:59.325Z,58.70
2023-02-22T03:43:50.443Z,40.60
2023-02-22T03:46:40.210Z,44.30
2023-02-22T03:49:38.777Z,31.05
2023-02-22T03:52:27.619Z,34.72
2023-02-22T03:55:17.728Z,28.52
2023-02-22T03:58:12.346Z,31.92
2023-02-22T04:00:59.859Z,22.73
2023-02-22T04:03:47.392Z,21.73
2023-02-22T04:06:35.771Z,24.77
2023-02-22T04:09:23.536Z,31.88
2023-02-22T04:12:10.783Z,25.67
2023-02-22T04:15:16.063Z,16.23
2023-02-22T04:18:04.470Z,18.20
2023-02-22T04:20:52.066Z,15.43
2023-02-22T04:24:05.891Z,5.43
2023-02-22T04:26:53.496Z,2.88
2023-02-22T04:29:42.036Z,2.30
2023-02-22T04:32:29.361Z,2.10
2023-02-22T04:35:17.390Z,2.63
2023-02-22T04:38:05.350Z,2.33
2023-02-22T04:40:53.517Z,2.25
2023-02-22T04:43:41.522Z,2.10
2023-02-22T04:46:47.835Z,2.63
2023-02-22T04:49:38.936Z,2.20
2023-02-22T04:52:27.301Z,2.20
2023-02-22T04:55:14.564Z,2.67
2023-02-22T04:58:03.567Z,2.53
2023-02-22T05:00:50.934Z,2.35
2023-02-22T05:03:38.728Z,2.42
2023-02-22T05:06:25.937Z,2.70
2023-02-22T05:09:13.357Z,2.55
2023-02-22T05:12:00.904Z,2.20
2023-02-22T05:14:48.285Z,2.05
2023-02-22T05:17:36.430Z,2.65
2023-02-22T05:20:28.094Z,3.00
2023-02-22T05:23:15.497Z,2.58
2023-02-22T05:26:02.664Z,2.60
2023-02-22T05:28:49.882Z,2.90
2023-02-22T05:31:37.218Z,2.20
2023-02-22T05:34:24.407Z,2.53
2023-02-22T05:37:11.495Z,2.72
2023-02-22T05:39:58.850Z,2.60
2023-02-22T05:42:48.735Z,2.92
2023-02-22T05:45:36.308Z,2.60
2023-02-22T05:48:23.530Z,2.67
2023-02-22T05:51:10.868Z,3.15
2023-02-22T05:53:58.037Z,2.40
2023-02-22T05:56:45.175Z,2.70
2023-02-22T05:59:32.424Z,2.90
2023-02-22T06:02:19.682Z,3.20
2023-02-22T06:05:07.296Z,2.83
2023-02-22T06:07:55.177Z,3.25
2023-02-22T06:10:42.346Z,2.60
2023-02-22T06:13:29.583Z,2.88
2023-02-22T06:16:16.797Z,3.25
2023-02-22T06:19:04.432Z,3.00
2023-02-22T06:21:52.906Z,2.85
2023-02-22T06:24:39.988Z,2.88
2023-02-22T06:27:31.158Z,2.05
2023-02-22T06:33:07.475Z,2.42
2023-02-22T06:35:54.636Z,2.22
2023-02-22T06:38:41.832Z,2.40
2023-02-22T06:41:29.278Z,2.50
2023-02-22T06:44:16.475Z,2.40
2023-02-22T06:47:03.737Z,2.55
2023-02-22T06:49:56.281Z,2.78
2023-02-22T06:52:43.552Z,2.03
2023-02-22T06:55:32.777Z,2.50
2023-02-22T06:58:20.358Z,3.08
2023-02-22T07:01:08.133Z,3.00
2023-02-22T07:03:55.386Z,2.95
2023-02-22T07:06:47.549Z,2.97
2023-02-22T07:09:34.767Z,3.20
2023-02-22T07:12:21.989Z,2.90
2023-02-22T07:15:10.364Z,3.47
2023-02-22T07:17:58.348Z,3.28
2023-02-22T07:20:45.496Z,3.13
2023-02-22T07:23:32.680Z,2.45
2023-02-22T07:26:20.468Z,2.17
2023-02-22T07:29:07.787Z,2.17
2023-02-22T07:31:55.763Z,2.80
2023-02-22T07:34:43.117Z,2.60
2023-02-22T07:37:30.518Z,2.58
2023-02-22T07:40:18.745Z,2.75
2023-02-22T07:43:21.670Z,3.10
2023-02-22T07:46:09.168Z,3.88
2023-02-22T07:48:56.450Z,3.58
2023-02-22T07:51:43.730Z,3.60
2023-02-22T07:54:30.869Z,3.95
2023-02-22T07:57:18.220Z,3.80
2023-02-22T08:00:05.836Z,3.33
2023-02-22T08:03:01.707Z,3.65
2023-02-22T08:05:54.915Z,3.50
2023-02-22T08:08:42.835Z,3.65
2023-02-22T08:11:30.067Z,3.63
2023-02-22T08:14:17.507Z,3.60
2023-02-22T08:17:06.502Z,4.10
2023-02-22T08:19:54.859Z,4.07
2023-02-22T08:22:46.031Z,3.95
2023-02-22T08:25:34.229Z,3.50
2023-02-22T08:28:24.069Z,4.78
2023-02-22T08:31:11.224Z,4.47
2023-02-22T08:33:58.537Z,4.45
2023-02-22T08:36:46.189Z,4.40
2023-02-22T08:39:33.366Z,4.50
2023-02-22T08:42:20.539Z,4.60
2023-02-22T08:45:08.276Z,4.53
2023-02-22T08:47:55.701Z,4.63
2023-02-22T08:50:44.408Z,5.30
2023-02-22T08:53:32.899Z,5.15
2023-02-22T08:56:20.458Z,4.75
2023-02-22T08:59:07.690Z,4.47
2023-02-22T09:01:55.581Z,4.60
2023-02-22T09:04:43.183Z,4.60
2023-02-22T09:07:31.126Z,4.38
2023-02-22T09:10:27.136Z,4.72
2023-02-22T09:13:14.390Z,4.53
2023-02-22T09:16:01.539Z,4.70
2023-02-22T09:18:48.716Z,151.40
2023-02-22T09:21:36.134Z,2.95
2023-02-22T09:24:23.836Z,3.10
2023-02-22T09:27:12.196Z,2.90
2023-02-22T09:29:59.419Z,3.13
2023-02-22T09:32:46.700Z,3.05
2023-02-22T09:35:36.355Z,2.72
2023-02-22T09:38:24.894Z,2.20
2023-02-22T09:41:34.585Z,4.47
2023-02-22T09:44:48.132Z,4.00
2023-02-22T09:47:48.726Z,3.80
2023-02-22T09:50:39.616Z,3.40
2023-02-22T09:53:41.698Z,3.80
2023-02-22T09:56:31.340Z,3.20
2023-02-22T09:59:27.045Z,3.30
2023-02-22T10:02:26.137Z,3.83
2023-02-22T10:05:27.633Z,4.18
2023-02-22T10:08:19.038Z,3.72
2023-02-22T10:11:16.054Z,3.90
2023-02-22T10:14:16.290Z,4.03
2023-02-22T10:17:33.408Z,4.70
2023-02-22T10:20:42.638Z,4.22
2023-02-22T10:23:54.567Z,4.47
2023-02-22T10:26:44.814Z,4.32
2023-02-22T10:29:35.597Z,4.38
2023-02-22T10:32:36.179Z,4.43
2023-02-22T10:35:32.213Z,4.28
2023-02-22T10:38:24.694Z,4.72
2023-02-22T10:41:11.907Z,4.65
2023-02-22T10:43:59.651Z,4.28
2023-02-22T10:46:47.440Z,3.70
2023-02-22T10:49:39.140Z,3.65
2023-02-22T10:52:34.870Z,3.60
2023-02-22T10:55:22.589Z,3.30
2023-02-22T10:58:10.816Z,3.30
2023-02-22T11:00:58.184Z,3.13
2023-02-22T11:03:45.620Z,3.60
2023-02-22T11:06:35.154Z,3.22
2023-02-22T11:09:22.729Z,3.70
2023-02-22T11:12:16.657Z,3.40
2023-02-22T11:15:26.021Z,2.90
2023-02-22T11:18:24.082Z,3.20
2023-02-22T11:21:13.889Z,3.10
2023-02-22T11:24:11.043Z,3.22
2023-02-22T11:27:01.251Z,3.17
2023-02-22T11:29:50.976Z,3.28
2023-02-22T11:32:46.706Z,3.38
2023-02-22T11:35:38.832Z,3.10
2023-02-22T11:38:33.635Z,3.28
2023-02-22T11:41:29.119Z,3.20
2023-02-22T11:44:30.209Z,4.65
2023-02-22T11:47:17.510Z,5.68
2023-02-22T11:50:17.037Z,6.88
2023-02-22T11:53:34.356Z,5.65
2023-02-22T11:57:03.718Z,5.60
2023-02-22T12:00:16.528Z,6.53
2023-02-22T12:03:14.784Z,7.53
2023-02-22T12:06:24.864Z,6.65
2023-02-22T12:09:15.164Z,6.65
2023-02-22T12:12:27.319Z,5.75
2023-02-22T12:15:28.777Z,6.53
2023-02-22T12:18:24.040Z,6.20
2023-02-22T12:21:18.016Z,6.22
2023-02-22T12:24:14.311Z,6.80
2023-02-22T12:27:09.845Z,6.78
2023-02-22T12:30:06.881Z,7.43
2023-02-22T12:32:59.319Z,7.07
2023-02-22T12:35:54.528Z,6.97
2023-02-22T12:38:45.593Z,6.10
2023-02-22T12:41:49.776Z,6.50
2023-02-22T12:44:41.660Z,7.30
2023-02-22T12:47:38.986Z,7.72
2023-02-22T12:50:29.800Z,6.75
2023-02-22T12:53:23.416Z,6.18
2023-02-22T12:56:22.630Z,6.22
2023-02-22T12:59:41.570Z,6.20
2023-02-22T13:02:45.239Z,7.07
2023-02-22T13:05:39.769Z,6.90
2023-02-22T13:08:58.501Z,14.63
2023-02-22T13:12:04.911Z,7.18
2023-02-22T13:15:17.181Z,8.13
2023-02-22T13:18:19.060Z,7.80
2023-02-22T13:21:25.530Z,8.18
2023-02-22T13:24:30.528Z,7.85
2023-02-22T13:27:25.961Z,7.75
2023-02-22T13:30:47.571Z,57.70
2023-02-22T13:34:01.113Z,999.90
2023-02-22T13:37:25.226Z,999.90
2023-02-22T13:40:19.961Z,999.90
2023-02-22T13:43:39.297Z,999.90
2023-02-22T13:46:36.708Z,999.90
2023-02-22T13:49:40.321Z,999.90
2023-02-22T13:52:30.982Z,999.90
2023-02-22T13:55:28.106Z,999.90
2023-02-22T13:58:15.527Z,999.90
2023-02-22T14:01:03.816Z,999.90
2023-02-22T14:03:51.029Z,999.90
2023-02-22T14:06:41.613Z,999.90
2023-02-22T14:09:47.134Z,999.90
2023-02-22T14:12:37.491Z,999.90
2023-02-22T14:15:30.090Z,999.90
2023-02-22T14:18:18.210Z,999.90
2023-02-22T14:21:09.576Z,999.90
2023-02-22T14:24:07.808Z,999.90
2023-02-22T14:27:03.447Z,999.90
2023-02-22T14:29:57.246Z,999.90
2023-02-22T14:32:44.600Z,999.90
2023-02-22T14:35:49.832Z,999.90
2023-02-22T14:38:37.955Z,999.90
2023-02-22T14:41:30.252Z,999.90
2023-02-22T14:44:23.893Z,999.90
2023-02-22T14:47:21.027Z,999.90
2023-02-22T14:50:15.334Z,999.90
2023-02-22T14:53:24.007Z,999.90
2023-02-22T14:56:17.686Z,999.90
2023-02-22T14:59:21.383Z,999.90
2023-02-22T15:02:13.662Z,999.90
2023-02-22T15:05:01.346Z,999.90
2023-02-22T15:08:03.885Z,999.90
2023-02-22T15:10:51.972Z,999.90
2023-02-22T15:13:49.982Z,999.90
2023-02-22T15:16:38.811Z,999.90
2023-02-22T15:19:32.226Z,999.90
2023-02-22T15:22:22.590Z,999.90
2023-02-22T15:25:11.763Z,999.90
2023-02-22T15:28:03.871Z,999.90
2023-02-22T15:30:51.135Z,999.90
2023-02-22T15:33:38.384Z,999.90
2023-02-22T15:36:31.183Z,999.90
2023-02-22T15:39:27.284Z,999.90
2023-02-22T15:42:20.830Z,999.90
2023-02-22T15:45:08.200Z,999.90
2023-02-22T15:47:56.353Z,999.90
2023-02-22T15:51:10.767Z,999.90
2023-02-22T15:54:01.917Z,999.90
2023-02-22T15:59:43.790Z,999.90
2023-02-22T16:02:35.520Z,999.90
2023-02-22T16:05:38.356Z,999.90
2023-02-22T16:08:31.279Z,999.90
2023-02-22T16:11:33.134Z,999.90
2023-02-22T16:14:40.670Z,999.90
2023-02-22T16:17:39.863Z,999.90
2023-02-22T16:20:32.488Z,999.90
2023-02-22T16:23:24.749Z,999.90
2023-02-22T16:26:23.263Z,999.90
2023-02-22T16:29:26.167Z,999.90
2023-02-22T16:32:15.435Z,999.90
2023-02-22T16:35:03.297Z,999.90
2023-02-22T16:37:54.933Z,999.90
2023-02-22T16:40:50.409Z,999.90
2023-02-22T16:43:37.698Z,999.90
2023-02-22T16:46:25.148Z,999.90
2023-02-22T16:49:13.554Z,999.90
2023-02-22T16:52:01.671Z,5.35
2023-02-22T16:54:49.380Z,7.05
2023-02-22T16:57:38.635Z,8.32
2023-02-22T17:00:31.892Z,7.75
2023-02-22T17:03:19.479Z,7.30
2023-02-22T17:06:07.001Z,6.78
2023-02-22T17:08:54.200Z,7.30
2023-02-22T17:11:42.264Z,7.35
2023-02-22T17:14:33.261Z,7.05
2023-02-22T17:17:20.468Z,11.15
2023-02-22T17:20:12.612Z,16.10
2023-02-22T17:23:05.568Z,12.27
2023-02-22T17:25:55.868Z,13.35
2023-02-22T17:28:44.118Z,11.75
2023-02-22T17:31:31.664Z,12.32
2023-02-22T17:34:18.934Z,11.88
2023-02-22T17:37:06.491Z,12.73
2023-02-22T17:39:55.853Z,12.55
2023-02-22T17:42:44.242Z,12.52
2023-02-22T17:45:31.537Z,13.50
2023-02-22T17:48:19.712Z,12.52
2023-02-22T17:51:08.438Z,13.05
2023-02-22T17:53:55.675Z,14.07
2023-02-22T17:56:42.843Z,13.55
2023-02-22T17:59:30.066Z,12.93
2023-02-22T18:02:17.238Z,12.35
2023-02-22T18:05:04.774Z,12.93
2023-02-22T18:07:52.473Z,13.45
2023-02-22T18:10:41.522Z,13.55
2023-02-22T18:13:28.785Z,13.70
2023-02-22T18:16:16.363Z,12.60
2023-02-22T18:19:03.896Z,12.98
2023-02-22T18:21:51.043Z,13.30
2023-02-22T18:24:38.198Z,13.30
2023-02-22T18:27:25.951Z,14.48
2023-02-22T18:30:13.323Z,16.00
2023-02-22T18:33:00.631Z,13.85
2023-02-22T18:35:52.108Z,13.00
2023-02-22T18:38:43.588Z,15.43
2023-02-22T18:41:30.993Z,13.45
2023-02-22T18:44:18.406Z,13.10
2023-02-22T18:47:05.780Z,15.75
2023-02-22T18:49:52.970Z,12.80
2023-02-22T18:52:46.098Z,13.32
2023-02-22T18:55:37.160Z,14.38
2023-02-22T18:58:24.354Z,13.30
2023-02-22T19:01:17.227Z,13.73
2023-02-22T19:04:05.796Z,13.75
2023-02-22T19:06:57.606Z,14.82
2023-02-22T19:09:44.980Z,15.30
2023-02-22T19:12:33.361Z,13.50
2023-02-22T19:15:20.556Z,14.00
2023-02-22T19:18:07.870Z,13.68
2023-02-22T19:20:56.571Z,13.00
2023-02-22T19:23:47.705Z,13.95
2023-02-22T19:29:24.725Z,14.05
2023-02-22T19:32:12.418Z,13.93
2023-02-22T19:35:02.239Z,14.73
2023-02-22T19:37:55.001Z,15.93
2023-02-22T19:40:42.286Z,14.35
2023-02-22T19:43:29.533Z,14.95
2023-02-22T19:46:17.886Z,16.55
2023-02-22T19:49:06.309Z,14.98
2023-02-22T19:51:53.500Z,14.68
2023-02-22T19:54:40.685Z,17.33
2023-02-22T19:57:29.854Z,16.90
2023-02-22T20:00:24.507Z,16.55
2023-02-22T20:03:13.467Z,16.73
2023-02-22T20:06:01.456Z,16.67
2023-02-22T20:08:48.720Z,17.13
2023-02-22T20:11:36.488Z,16.27
2023-02-22T20:14:28.392Z,16.95
2023-02-22T20:17:15.825Z,19.23
2023-02-22T20:20:05.235Z,18.65
2023-02-22T20:22:53.135Z,19.70
2023-02-22T20:25:41.394Z,19.13
2023-02-22T20:28:28.576Z,18.52
2023-02-22T20:31:16.381Z,20.73
2023-02-22T20:34:06.268Z,20.40
2023-02-22T20:36:54.009Z,19.40
2023-02-22T20:39:42.212Z,19.80
2023-02-22T20:42:29.636Z,20.60
2023-02-22T20:45:19.964Z,21.83
2023-02-22T20:48:07.387Z,21.10
2023-02-22T20:50:54.550Z,21.00
2023-02-22T20:53:44.941Z,21.75
2023-02-22T20:56:32.758Z,22.92
2023-02-22T20:59:20.480Z,22.00
2023-02-22T21:02:08.714Z,22.33
2023-02-22T21:04:56.043Z,22.15
2023-02-22T21:07:43.267Z,22.85
2023-02-22T21:10:30.458Z,22.60
2023-02-22T21:13:17.701Z,22.73
2023-02-22T21:16:06.456Z,24.13
2023-02-22T21:18:55.647Z,23.45
2023-02-22T21:21:42.797Z,23.55
2023-02-22T21:24:30.065Z,22.42
2023-02-22T21:27:17.393Z,23.88
2023-02-22T21:30:05.252Z,23.58
2023-02-22T21:32:53.927Z,23.65
2023-02-22T21:35:42.981Z,24.55
2023-02-22T21:38:33.176Z,23.05
2023-02-22T21:41:22.089Z,23.88
2023-02-22T21:44:09.517Z,23.58
2023-02-22T21:46:57.200Z,24.40
2023-02-22T21:49:44.470Z,23.38
2023-02-22T21:52:31.742Z,24.55
2023-02-22T21:55:19.358Z,25.20
2023-02-22T21:58:06.555Z,23.85
2023-02-22T22:00:53.790Z,24.08
2023-02-22T22:03:40.909Z,23.85
2023-02-22T22:06:29.552Z,24.85
2023-02-22T22:09:20.597Z,24.67
2023-02-22T22:12:10.134Z,25.08
2023-02-22T22:14:57.398Z,24.48
2023-02-22T22:17:45.304Z,24.33
2023-02-22T22:20:33.331Z,24.63
2023-02-22T22:23:20.518Z,24.55
2023-02-22T22:26:13.077Z,25.27
2023-02-22T22:29:00.863Z,27.45
2023-02-22T22:31:48.839Z,26.52
2023-02-22T22:34:37.855Z,25.38
2023-02-22T22:37:27.999Z,26.48
2023-02-22T22:40:15.708Z,25.70
2023-02-22T22:43:03.174Z,26.17
2023-02-22T22:45:50.579Z,26.50
2023-02-22T22:48:39.104Z,26.77
2023-02-22T22:51:26.471Z,26.38
2023-02-22T22:54:13.744Z,26.95
2023-02-22T22:57:01.216Z,26.83
2023-02-22T22:59:49.888Z,26.65
2023-02-22T23:02:38.034Z,27.92
2023-02-22T23:05:26.495Z,26.35
2023-02-22T23:08:13.791Z,28.88
2023-02-22T23:11:09.071Z,26.70
2023-02-22T23:13:56.741Z,27.75
2023-02-22T23:16:45.414Z,29.35
2023-02-22T23:19:36.924Z,28.00
2023-02-22T23:22:24.074Z,27.38
2023-02-22T23:25:11.344Z,27.77
2023-02-22T23:27:58.583Z,26.27
2023-02-22T23:30:45.847Z,24.88
2023-02-22T23:33:33.172Z,27.48
2023-02-22T23:36:20.433Z,27.05
2023-02-22T23:39:07.613Z,25.88
2023-02-22T23:41:59.086Z,26.10
2023-02-22T23:44:47.952Z,27.35
2023-02-22T23:47:35.149Z,28.00
2023-02-22T23:50:29.044Z,25.95
2023-02-22T23:53:16.300Z,26.13
2023-02-22T23:56:13.236Z,26.17
2023-02-22T23:59:00.558Z,25.45
